Time;durP1;ratioP1;P1;durP2;ratioP2;P2;SDS_P1;SDS_P2;PMS_P1;PMS_P2;Temp;Humidity;BMP_temperature;BMP_pressure;BME280_temperature;BME280_humidity;BME280_pressure;Samples;Min_cycle;Max_cycle;Signal;HPM_P1;HPM_P2
2023/06/14 00:00:11;;;;;;;7.03;4.60;;;;;;;21.75;93.60;100035.22;5032635;28;20400;-68
2023/06/14 00:02:39;;;;;;;9.52;4.15;;;;;;;21.88;94.18;100078.81;5032187;28;20083;-71
2023/06/14 00:05:05;;;;;;;10.07;4.60;;;;;;;21.83;94.73;100070.09;5031153;28;20112;-67
2023/06/14 00:07:42;;;;;;;8.48;4.45;;;;;;;21.71;94.87;100062.41;5032389;28;20028;-67
2023/06/14 00:10:09;;;;;;;7.78;4.35;;;;;;;21.76;95.61;100073.75;5030282;28;20392;-69
2023/06/14 00:12:36;;;;;;;6.55;4.60;;;;;;;21.68;95.54;100065.97;5032231;28;20049;-64
2023/06/14 00:15:02;;;;;;;10.07;4.28;;;;;;;21.66;95.38;100062.50;5031072;28;20380;-69
2023/06/14 00:17:31;;;;;;;7.88;4.35;;;;;;;21.60;96.25;100062.59;5024730;28;20025;-66
2023/06/14 00:19:57;;;;;;;6.07;4.25;;;;;;;21.35;97.79;100068.16;5031070;28;20063;-66
2023/06/14 00:22:26;;;;;;;9.20;4.20;;;;;;;21.39;97.72;100061.13;5032007;28;20033;-66
2023/06/14 00:24:52;;;;;;;6.88;4.35;;;;;;;21.16;97.36;100013.28;5029670;28;20037;-64
2023/06/14 00:27:17;;;;;;;5.97;4.28;;;;;;;21.40;97.86;100045.34;5031958;28;20128;-65
2023/06/14 00:29:42;;;;;;;9.88;4.40;;;;;;;21.42;97.95;100059.31;5031494;28;20037;-64
2023/06/14 00:32:08;;;;;;;7.68;4.40;;;;;;;21.07;98.39;100007.31;5031739;28;20028;-70
2023/06/14 00:34:34;;;;;;;10.45;4.65;;;;;;;21.36;98.72;100059.41;5031608;28;20060;-73
2023/06/14 00:37:00;;;;;;;7.45;4.50;;;;;;;21.06;98.53;100009.06;5031868;28;20434;-66
2023/06/14 00:39:25;;;;;;;7.43;4.30;;;;;;;21.39;98.67;100056.72;5031300;28;20108;-64
2023/06/14 00:41:51;;;;;;;7.80;4.45;;;;;;;21.40;98.38;100055.00;5031370;28;20032;-65
2023/06/14 00:44:16;;;;;;;9.57;4.43;;;;;;;21.34;98.58;100059.41;5031179;28;20498;-70
2023/06/14 00:46:43;;;;;;;7.22;4.60;;;;;;;21.26;99.15;100048.16;5031273;28;20036;-66
2023/06/14 00:49:10;;;;;;;10.68;4.75;;;;;;;21.31;99.28;100056.84;5031100;28;20040;-65
2023/06/14 00:51:37;;;;;;;9.40;4.90;;;;;;;21.27;99.87;100049.91;5031824;28;20041;-67
2023/06/14 00:54:03;;;;;;;12.52;4.60;;;;;;;21.22;99.89;100040.34;5031263;28;20025;-69
2023/06/14 00:56:29;;;;;;;5.93;4.10;;;;;;;21.29;100.00;100047.25;5031594;28;20467;-69
2023/06/14 00:58:55;;;;;;;8.05;4.32;;;;;;;20.94;100.00;99996.97;5031129;28;20029;-66
2023/06/14 01:01:21;;;;;;;8.88;4.63;;;;;;;21.03;100.00;100009.09;5031369;28;20026;-68
2023/06/14 01:03:47;;;;;;;9.48;4.50;;;;;;;20.74;100.00;99978.00;5030820;28;20037;-69
2023/06/14 01:06:29;;;;;;;11.20;4.60;;;;;;;21.24;100.00;100046.44;5031376;28;20025;-68
2023/06/14 01:09:20;;;;;;;8.88;4.63;;;;;;;21.30;100.00;100051.63;5030963;28;20538;-63
2023/06/14 01:11:59;;;;;;;8.35;4.07;;;;;;;21.34;99.93;100053.31;5008380;28;20114;-68
2023/06/14 01:14:27;;;;;;;8.10;4.90;;;;;;;21.30;100.00;100049.84;5008710;28;20480;-68
2023/06/14 01:16:53;;;;;;;7.90;4.88;;;;;;;21.20;100.00;100032.50;5008141;28;20478;-67
2023/06/14 01:19:22;;;;;;;10.20;3.95;;;;;;;20.56;100.00;99992.19;5008657;28;20030;-68
2023/06/14 01:21:50;;;;;;;8.75;4.60;;;;;;;20.94;100.00;100044.19;5008267;28;20124;-68
2023/06/14 01:24:19;;;;;;;12.52;3.80;;;;;;;20.89;100.00;100030.28;5008872;28;20041;-66
2023/06/14 01:26:46;;;;;;;11.65;4.65;;;;;;;20.65;99.97;99987.69;5007912;28;20072;-70
2023/06/14 01:29:17;;;;;;;7.72;4.35;;;;;;;21.01;100.00;100047.63;4991903;28;20054;-67
2023/06/14 01:31:43;;;;;;;8.40;4.90;;;;;;;20.91;100.00;100036.38;5008337;28;20496;-68
2023/06/14 01:34:08;;;;;;;8.98;4.45;;;;;;;20.66;100.00;99999.03;5008359;28;20029;-65
2023/06/14 01:36:38;;;;;;;8.73;5.03;;;;;;;20.81;99.71;100019.88;5007882;28;20038;-65
2023/06/14 01:39:05;;;;;;;7.75;4.65;;;;;;;20.52;100.00;99983.47;5007814;28;20403;-68
2023/06/14 01:41:31;;;;;;;6.57;4.60;;;;;;;20.87;100.00;100054.81;5008277;28;20096;-68
2023/06/14 01:43:58;;;;;;;9.77;5.40;;;;;;;20.87;100.00;100054.81;5008054;28;20041;-67
2023/06/14 01:46:25;;;;;;;7.78;4.40;;;;;;;20.54;100.00;100005.31;5008388;28;20615;-68
2023/06/14 01:48:51;;;;;;;11.38;5.70;;;;;;;20.70;100.00;100047.97;5009290;28;20049;-68
2023/06/14 01:51:16;;;;;;;7.70;4.95;;;;;;;20.29;100.00;99989.84;5028788;28;20021;-69
2023/06/14 01:53:41;;;;;;;8.18;4.72;;;;;;;20.33;100.00;99985.44;5029993;28;20381;-69
2023/06/14 01:56:07;;;;;;;9.25;4.70;;;;;;;20.35;100.00;99987.16;5029999;28;20045;-68
2023/06/14 01:58:32;;;;;;;9.52;5.22;;;;;;;20.67;100.00;100046.25;5030214;28;20033;-66
2023/06/14 02:01:00;;;;;;;10.00;5.28;;;;;;;20.69;100.00;100054.94;5029541;28;20423;-67
2023/06/14 02:03:26;;;;;;;9.50;5.07;;;;;;;20.74;100.00;100051.47;5030108;28;20379;-67
2023/06/14 02:05:51;;;;;;;9.88;5.65;;;;;;;20.60;100.00;100055.06;5030005;28;20025;-68
2023/06/14 02:08:17;;;;;;;8.68;5.15;;;;;;;20.49;100.00;100026.34;5029442;28;20400;-68
2023/06/14 02:10:43;;;;;;;11.90;5.50;;;;;;;20.34;100.00;99995.06;5029888;28;20033;-65
2023/06/14 02:13:08;;;;;;;7.75;5.25;;;;;;;20.67;100.00;100042.75;5030120;28;20022;-71
2023/06/14 02:15:35;;;;;;;9.00;4.93;;;;;;;20.75;100.00;100051.44;5029962;28;20022;-69
2023/06/14 02:18:05;;;;;;;7.82;6.05;;;;;;;20.68;100.00;100039.25;5030100;28;20025;-69
2023/06/14 02:20:30;;;;;;;8.35;5.72;;;;;;;20.74;100.00;100060.19;5029727;28;20025;-67
2023/06/14 02:22:56;;;;;;;10.57;5.78;;;;;;;20.68;100.00;100044.50;5029769;28;20033;-67
2023/06/14 02:25:22;;;;;;;10.10;5.78;;;;;;;20.67;100.00;100048.88;5029705;28;20022;-68
2023/06/14 02:27:47;;;;;;;7.07;5.38;;;;;;;20.64;100.00;100050.66;5029903;28;20490;-67
2023/06/14 02:30:13;;;;;;;9.35;5.25;;;;;;;20.49;100.00;100060.41;5029898;28;20025;-66
2023/06/14 02:32:40;;;;;;;6.07;4.90;;;;;;;20.44;100.00;100058.75;5030258;28;20376;-69
2023/06/14 02:35:06;;;;;;;8.02;5.20;;;;;;;20.45;100.00;100057.84;5029573;28;20021;-71
2023/06/14 02:37:32;;;;;;;9.60;4.70;;;;;;;20.43;100.00;100052.63;5029751;28;20033;-66
2023/06/14 02:39:58;;;;;;;8.35;5.03;;;;;;;20.29;100.00;100057.16;5033665;28;20099;-68
2023/06/14 02:42:24;;;;;;;7.07;5.22;;;;;;;20.01;100.00;100021.59;5033980;28;20116;-66
2023/06/14 02:44:51;;;;;;;7.13;4.78;;;;;;;20.13;100.00;100041.56;5033478;28;20029;-64
2023/06/14 02:47:18;;;;;;;8.25;4.88;;;;;;;20.08;100.00;100032.00;5032187;28;20025;-66
2023/06/14 02:49:46;;;;;;;6.78;4.72;;;;;;;20.15;100.00;100050.28;5033603;28;20032;-68
2023/06/14 02:52:12;;;;;;;6.97;4.85;;;;;;;20.14;100.00;100048.53;5033607;28;20033;-64
2023/06/14 02:54:37;;;;;;;6.93;5.38;;;;;;;20.24;100.00;100059.81;5033140;28;20035;-67
2023/06/14 02:57:03;;;;;;;10.00;5.55;;;;;;;20.25;100.00;100066.78;5033812;28;20049;-69
2023/06/14 02:59:28;;;;;;;8.13;5.15;;;;;;;20.10;100.00;100053.81;5031943;28;20021;-68
2023/06/14 03:01:54;;;;;;;10.07;5.35;;;;;;;20.10;100.00;100059.06;5033165;28;20464;-70
2023/06/14 03:04:20;;;;;;;7.65;5.20;;;;;;;19.95;100.00;100039.97;5033484;28;20550;-66
2023/06/14 03:06:50;;;;;;;11.18;5.72;;;;;;;20.10;100.00;100067.81;5033636;28;20030;-67
2023/06/14 03:09:16;;;;;;;9.45;6.05;;;;;;;20.06;100.00;100071.31;5033086;28;20476;-69
2023/06/14 03:11:41;;;;;;;9.80;5.95;;;;;;;19.94;100.00;100050.44;5033256;28;20040;-67
2023/06/14 03:14:08;;;;;;;10.45;6.22;;;;;;;20.09;100.00;100071.31;5020266;28;20029;-69
2023/06/14 03:16:33;;;;;;;11.25;6.63;;;;;;;19.69;100.00;100006.97;5033232;28;20075;-69
2023/06/14 03:18:59;;;;;;;10.55;7.05;;;;;;;19.83;100.00;100024.38;5032792;28;20041;-66
2023/06/14 03:21:25;;;;;;;10.32;6.40;;;;;;;19.96;100.00;100067.03;5032896;28;20037;-68
2023/06/14 03:23:52;;;;;;;10.70;6.93;;;;;;;19.89;100.00;100055.75;5033018;28;20509;-68
2023/06/14 03:26:18;;;;;;;10.18;6.30;;;;;;;19.86;100.00;100053.13;5032780;28;20072;-68
2023/06/14 03:28:47;;;;;;;7.60;5.38;;;;;;;19.88;100.00;100067.97;5033243;28;20057;-64
2023/06/14 03:31:13;;;;;;;8.18;6.25;;;;;;;19.96;100.00;100072.28;5032983;28;20028;-71
2023/06/14 03:33:39;;;;;;;10.07;5.95;;;;;;;19.98;100.00;100076.63;5032472;28;20029;-67
2023/06/14 03:36:05;;;;;;;8.90;5.55;;;;;;;19.99;100.00;100075.75;5032567;28;20032;-72
2023/06/14 03:38:30;;;;;;;10.95;5.60;;;;;;;19.95;100.00;100084.53;5032493;28;20025;-67
2023/06/14 03:40:56;;;;;;;7.82;5.50;;;;;;;19.95;100.00;100079.28;5032833;28;20026;-67
2023/06/14 03:43:21;;;;;;;10.65;6.05;;;;;;;19.60;100.00;100030.63;5031449;28;20053;-70
2023/06/14 03:45:48;;;;;;;11.75;6.00;;;;;;;19.87;100.00;100079.31;5013348;28;20030;-68
2023/06/14 03:48:13;;;;;;;13.10;6.20;;;;;;;19.81;100.00;100078.47;5013379;28;20029;-67
2023/06/14 03:50:40;;;;;;;9.02;5.95;;;;;;;19.88;100.00;100090.69;5013184;28;20044;-67
2023/06/14 03:53:06;;;;;;;11.80;6.03;;;;;;;19.77;100.00;100093.34;5012813;28;20037;-69
2023/06/14 03:55:31;;;;;;;10.60;6.30;;;;;;;19.77;100.00;100097.72;5013259;28;20061;-67
2023/06/14 03:57:57;;;;;;;11.38;6.18;;;;;;;19.72;100.00;100082.03;5013413;28;20116;-66
2023/06/14 04:00:23;;;;;;;11.88;5.95;;;;;;;19.71;100.00;100090.75;5027211;28;20042;-66
2023/06/14 04:02:48;;;;;;;9.20;5.80;;;;;;;19.85;100.00;100109.91;5016449;28;20033;-67
2023/06/14 04:05:15;;;;;;;10.02;5.68;;;;;;;19.47;100.00;100027.19;5032714;28;20040;-68
2023/06/14 04:07:44;;;;;;;9.77;6.03;;;;;;;19.86;100.00;100110.78;5032567;28;20476;-67
2023/06/14 04:10:12;;;;;;;9.63;6.40;;;;;;;19.81;100.00;100112.53;5031626;28;20423;-66
2023/06/14 04:12:38;;;;;;;13.85;5.90;;;;;;;19.80;100.00;100090.72;5032478;28;20444;-66
2023/06/14 04:15:05;;;;;;;11.38;7.03;;;;;;;19.98;100.00;100121.16;5032577;28;20113;-67
2023/06/14 04:17:32;;;;;;;11.93;6.82;;;;;;;20.04;100.00;100115.03;5032529;28;20502;-70
2023/06/14 04:19:59;;;;;;;10.73;6.38;;;;;;;19.96;100.00;100099.38;5031204;28;20040;-67
2023/06/14 04:22:28;;;;;;;8.00;6.53;;;;;;;19.72;100.00;100061.94;5032384;28;20029;-68
2023/06/14 04:24:56;;;;;;;12.35;6.63;;;;;;;20.07;100.00;100122.84;5032569;28;20090;-68
2023/06/14 04:27:25;;;;;;;11.57;6.85;;;;;;;20.11;100.00;100124.56;5032457;28;20030;-68
2023/06/14 04:29:56;;;;;;;13.07;6.35;;;;;;;20.14;100.00;100123.69;5032120;28;20541;-68
2023/06/14 04:32:29;;;;;;;8.98;6.65;;;;;;;20.09;100.00;100117.56;5013336;28;20060;-67
2023/06/14 04:34:59;;;;;;;14.30;7.72;;;;;;;20.20;100.00;100139.38;5031110;28;20064;-66
2023/06/14 04:37:24;;;;;;;;;;;;;;;20.17;100.00;100140.22;5032250;28;20056;-68
2023/06/14 04:39:51;;;;;;;12.10;7.35;;;;;;;20.05;100.00;100137.72;5032207;28;20368;-65
2023/06/14 04:42:20;;;;;;;11.32;7.05;;;;;;;20.12;100.00;100139.41;5032238;28;20021;-67
2023/06/14 04:44:47;;;;;;;10.32;6.22;;;;;;;20.17;100.00;100131.50;5032008;28;20491;-73
2023/06/14 04:47:14;;;;;;;13.98;7.78;;;;;;;20.29;100.00;100146.28;5031580;28;20068;-67
2023/06/14 04:49:40;;;;;;;10.88;7.07;;;;;;;20.33;100.00;100145.34;5031387;28;20061;-67
2023/06/14 04:52:06;;;;;;;17.95;7.93;;;;;;;20.13;100.00;100108.84;5032036;28;20021;-67
2023/06/14 04:54:33;;;;;;;16.98;7.50;;;;;;;20.48;100.00;100152.22;5028278;28;20781;-66
2023/06/14 04:56:59;;;;;;;21.88;7.88;;;;;;;20.59;100.00;100150.38;5011930;28;20178;-65
2023/06/14 04:59:24;;;;;;;17.35;7.15;;;;;;;20.66;100.00;100154.69;5029215;28;20636;-67
2023/06/14 05:01:51;;;;;;;31.90;8.02;;;;;;;20.71;100.00;100154.69;5028952;28;20025;-65
2023/06/14 05:04:17;;;;;;;20.77;8.20;;;;;;;20.76;100.00;100159.84;5028139;28;20527;-67
2023/06/14 05:06:49;;;;;;;18.40;7.40;;;;;;;20.79;100.00;100162.47;5028995;28;20419;-67
2023/06/14 05:09:18;;;;;;;22.63;7.75;;;;;;;20.78;100.00;100158.09;5013103;28;20061;-67
2023/06/14 05:11:43;;;;;;;23.07;7.90;;;;;;;20.80;100.00;100162.44;5028466;28;20044;-69
2023/06/14 05:14:10;;;;;;;25.90;7.85;;;;;;;20.83;100.00;100164.16;5027529;28;20470;-69
2023/06/14 05:16:36;;;;;;;31.40;8.27;;;;;;;20.51;100.00;100094.50;5028367;28;20025;-67
2023/06/14 05:19:04;;;;;;;27.42;8.48;;;;;;;20.97;100.00;100153.50;5028463;28;20056;-67
2023/06/14 05:21:29;;;;;;;16.40;5.85;;;;;;;21.11;100.00;100158.59;5028828;28;20029;-68
2023/06/14 05:23:55;;;;;;;14.77;6.13;;;;;;;21.32;100.00;100178.47;5028185;28;20084;-68
2023/06/14 05:26:23;;;;;;;21.60;6.80;;;;;;;21.45;99.70;100179.22;5023689;28;20037;-69
2023/06/14 05:28:49;;;;;;;23.00;7.07;;;;;;;21.55;97.28;100180.81;5028253;28;20056;-67
2023/06/14 05:31:15;;;;;;;28.35;6.90;;;;;;;21.68;96.25;100181.56;5029081;28;20502;-68
2023/06/14 05:33:40;;;;;;;24.25;6.82;;;;;;;21.71;96.65;100184.16;5031058;28;20025;-67
2023/06/14 05:36:06;;;;;;;20.77;5.97;;;;;;;21.67;96.61;100184.22;5031273;28;20026;-68
2023/06/14 05:38:31;;;;;;;21.90;5.95;;;;;;;21.68;96.10;100199.94;5030982;28;20475;-69
2023/06/14 05:40:56;;;;;;;26.33;6.65;;;;;;;21.65;96.14;100186.88;5031065;28;20396;-66
2023/06/14 05:43:22;;;;;;;18.50;6.30;;;;;;;21.78;96.83;100198.97;5030780;28;20038;-67
2023/06/14 05:45:48;;;;;;;26.10;7.20;;;;;;;21.88;96.22;100201.44;5031066;28;20088;-67
2023/06/14 05:48:13;;;;;;;18.35;6.20;;;;;;;21.99;95.24;100202.16;5030565;28;20116;-67
2023/06/14 05:50:38;;;;;;;21.38;6.38;;;;;;;22.08;93.97;100199.41;5029793;28;20029;-67
2023/06/14 05:53:04;;;;;;;15.30;6.25;;;;;;;21.85;93.04;100148.94;5029701;28;20029;-69
2023/06/14 05:55:29;;;;;;;8.10;5.30;;;;;;;22.20;91.52;100200.09;5030047;28;20021;-70
2023/06/14 05:57:55;;;;;;;10.57;5.28;;;;;;;22.13;91.58;100207.19;5029582;28;20566;-65
2023/06/14 06:00:20;;;;;;;9.13;4.85;;;;;;;22.25;90.94;100203.53;5029926;28;20044;-68
2023/06/14 06:02:47;;;;;;;6.90;4.13;;;;;;;22.40;86.97;100218.22;5029763;28;20024;-67
2023/06/14 06:05:13;;;;;;;9.20;4.30;;;;;;;22.51;84.92;100216.28;5030112;28;20022;-67
2023/06/14 06:07:41;;;;;;;7.43;3.90;;;;;;;22.46;83.93;100203.22;5030296;28;20459;-69
2023/06/14 06:10:07;;;;;;;10.55;3.28;;;;;;;22.57;83.05;100203.03;5027518;28;20029;-70
2023/06/14 06:12:33;;;;;;;6.88;4.18;;;;;;;22.60;82.13;100191.59;5029285;28;20036;-67
2023/06/14 06:14:59;;;;;;;5.78;3.83;;;;;;;22.79;81.06;100221.06;5029941;28;20018;-67
2023/06/14 06:17:25;;;;;;;9.52;3.40;;;;;;;22.69;78.81;100225.66;5029285;28;20033;-66
2023/06/14 06:19:50;;;;;;;6.28;3.70;;;;;;;22.74;78.91;100226.44;5030009;28;20034;-66
2023/06/14 06:22:16;;;;;;;5.93;3.38;;;;;;;22.86;79.69;100229.75;5030071;28;20026;-67
2023/06/14 06:24:42;;;;;;;9.07;3.75;;;;;;;22.99;79.87;100233.03;5030225;28;20026;-67
2023/06/14 06:27:12;;;;;;;9.57;3.55;;;;;;;23.04;77.80;100226.78;5030305;28;20095;-70
2023/06/14 06:29:37;;;;;;;6.00;3.03;;;;;;;22.98;78.76;100213.72;5028579;28;20038;-68
2023/06/14 06:32:03;;;;;;;5.15;3.20;;;;;;;23.13;76.59;100224.84;5029870;28;20029;-66
2023/06/14 06:34:29;;;;;;;7.55;3.50;;;;;;;22.93;78.28;100182.22;5026977;28;20030;-68
2023/06/14 06:36:55;;;;;;;5.38;3.13;;;;;;;23.09;76.01;100230.19;5029121;28;20402;-65
2023/06/14 06:39:20;;;;;;;8.27;3.08;;;;;;;23.16;77.38;100230.13;5029021;28;20034;-66
2023/06/14 06:41:46;;;;;;;8.50;3.17;;;;;;;23.22;74.01;100230.00;5029843;28;20087;-68
2023/06/14 06:44:12;;;;;;;10.35;3.30;;;;;;;23.30;72.67;100225.44;5030190;28;20033;-66
2023/06/14 06:46:40;;;;;;;11.30;3.50;;;;;;;23.23;73.44;100219.44;5030277;28;20136;-66
2023/06/14 06:49:06;;;;;;;15.50;3.23;;;;;;;23.25;73.91;100228.19;5029872;28;20026;-70
2023/06/14 06:51:32;;;;;;;9.05;3.40;;;;;;;23.22;73.13;100222.09;5029831;28;20029;-67
2023/06/14 06:53:58;;;;;;;10.85;3.70;;;;;;;23.37;73.33;100227.06;5030191;28;20384;-67
2023/06/14 06:56:24;;;;;;;9.57;3.60;;;;;;;23.18;73.53;100217.78;5030019;28;20416;-67
2023/06/14 06:58:50;;;;;;;11.15;3.65;;;;;;;23.23;74.88;100208.91;5028583;28;20036;-67
2023/06/14 07:01:16;;;;;;;7.75;3.22;;;;;;;23.07;75.72;100155.63;5030273;28;20112;-70
2023/06/14 07:03:41;;;;;;;5.85;3.17;;;;;;;23.48;74.60;100220.69;5030090;28;20096;-68
2023/06/14 07:06:07;;;;;;;8.05;3.58;;;;;;;23.46;75.32;100214.59;5029881;28;20034;-66
2023/06/14 07:08:32;;;;;;;9.13;3.03;;;;;;;23.29;74.71;100205.28;5030040;28;20057;-66
2023/06/14 07:10:58;;;;;;;10.10;3.15;;;;;;;23.10;73.62;100192.44;5029681;28;20064;-66
2023/06/14 07:13:23;;;;;;;7.88;3.55;;;;;;;23.16;72.87;100214.31;5029414;28;20029;-66
2023/06/14 07:15:48;;;;;;;6.90;3.60;;;;;;;23.15;73.94;100216.03;5029940;28;20030;-68
2023/06/14 07:18:14;;;;;;;6.40;3.83;;;;;;;23.17;73.72;100216.06;5028666;28;20103;-67
2023/06/14 07:20:40;;;;;;;6.65;3.80;;;;;;;23.33;74.39;100219.22;5027838;28;20491;-68
2023/06/14 07:23:05;;;;;;;7.57;3.90;;;;;;;23.16;74.60;100173.03;5029192;28;20030;-68
2023/06/14 07:25:31;;;;;;;7.60;4.10;;;;;;;23.24;72.34;100181.66;5031206;28;20120;-69
2023/06/14 07:27:56;;;;;;;5.07;3.03;;;;;;;23.59;73.51;100216.09;5030090;28;20057;-66
2023/06/14 07:30:25;;;;;;;6.25;3.10;;;;;;;23.26;72.24;100147.38;5032980;28;20443;-65
2023/06/14 07:32:52;;;;;;;7.22;3.30;;;;;;;23.55;72.29;100210.03;5033313;28;20030;-66
2023/06/14 07:35:18;;;;;;;5.82;3.25;;;;;;;23.63;72.71;100204.56;5032567;28;20136;-67
2023/06/14 07:37:43;;;;;;;9.50;3.67;;;;;;;23.77;73.20;100201.63;5033045;28;20495;-67
2023/06/14 07:40:10;;;;;;;10.18;3.95;;;;;;;23.92;72.15;100203.09;5033155;28;20045;-67
2023/06/14 07:42:35;;;;;;;7.57;3.35;;;;;;;23.55;72.52;100143.25;5033069;28;20037;-67
2023/06/14 07:45:03;;;;;;;8.30;3.30;;;;;;;24.03;75.41;100202.88;5030698;28;20095;-68
2023/06/14 07:47:28;;;;;;;6.63;3.20;;;;;;;24.09;71.33;100200.09;5032688;28;20014;-67
2023/06/14 07:49:53;;;;;;;5.93;3.05;;;;;;;23.78;71.04;100141.91;5032492;28;20048;-66
2023/06/14 07:52:20;;;;;;;7.90;3.15;;;;;;;24.18;70.16;100183.16;5032551;28;20464;-65
2023/06/14 07:54:45;;;;;;;6.07;2.60;;;;;;;24.20;70.45;100168.16;5028912;28;20613;-66
2023/06/14 07:57:10;;;;;;;10.38;2.90;;;;;;;24.20;71.14;100150.56;5032752;28;20053;-66
2023/06/14 07:59:36;;;;;;;4.90;2.67;;;;;;;24.61;70.48;100197.94;5027656;28;20095;-68
2023/06/14 08:02:01;;;;;;;9.80;3.10;;;;;;;24.51;70.58;100159.47;5033152;28;20108;-66
2023/06/14 08:04:27;;;;;;;5.90;3.22;;;;;;;24.70;70.48;100189.81;5032901;28;20034;-66
2023/06/14 08:06:52;;;;;;;6.97;2.80;;;;;;;24.78;66.40;100194.03;5032906;28;20033;-66
2023/06/14 08:09:18;;;;;;;4.30;2.72;;;;;;;24.86;65.42;100197.31;5033024;28;20025;-64
2023/06/14 08:11:43;;;;;;;5.25;2.83;;;;;;;24.75;65.11;100196.72;5032954;28;20025;-66
2023/06/14 08:14:08;;;;;;;5.13;3.05;;;;;;;24.73;67.25;100188.00;5032430;28;20026;-65
2023/06/14 08:16:34;;;;;;;7.45;3.28;;;;;;;24.90;68.41;100190.16;5032880;28;20399;-70
2023/06/14 08:18:59;;;;;;;6.05;2.90;;;;;;;25.11;67.85;100196.63;5032318;28;20036;-66
2023/06/14 08:21:27;;;;;;;4.68;2.80;;;;;;;25.17;63.46;100193.84;5031613;28;20112;-66
2023/06/14 08:23:52;;;;;;;6.43;3.40;;;;;;;25.18;65.60;100201.75;5032541;28;20030;-66
2023/06/14 08:26:18;;;;;;;4.05;2.80;;;;;;;24.76;67.56;100132.47;5032539;28;20039;-68
2023/06/14 08:28:44;;;;;;;5.28;3.00;;;;;;;24.94;68.81;100195.34;5031237;28;20075;-65
2023/06/14 08:31:09;;;;;;;4.28;3.20;;;;;;;24.95;68.14;100202.34;5032616;28;20038;-66
2023/06/14 08:33:35;;;;;;;5.57;2.53;;;;;;;24.98;66.92;100201.41;5032033;28;20053;-64
2023/06/14 08:36:00;;;;;;;7.72;2.80;;;;;;;24.97;65.44;100194.38;5031760;28;20428;-66
2023/06/14 08:38:26;;;;;;;4.00;2.67;;;;;;;24.94;63.93;100192.69;5031045;28;20021;-65
2023/06/14 08:40:52;;;;;;;7.05;2.80;;;;;;;24.99;68.13;100192.59;5032567;28;20396;-65
2023/06/14 08:43:18;;;;;;;14.43;3.28;;;;;;;25.17;66.13;100207.03;5032042;28;20521;-66
2023/06/14 08:45:46;;;;;;;11.25;3.20;;;;;;;25.03;63.57;100168.69;5032229;28;20033;-66
2023/06/14 08:48:16;;;;;;;13.93;3.33;;;;;;;25.32;64.22;100206.63;5031634;28;20446;-65
2023/06/14 08:50:43;;;;;;;9.60;2.97;;;;;;;25.42;64.62;100201.97;5032014;28;20438;-65
2023/06/14 08:53:19;;;;;;;5.55;2.80;;;;;;;25.13;65.57;100148.16;5031912;28;20037;-66
2023/06/14 08:55:45;;;;;;;8.40;2.85;;;;;;;25.36;65.53;100202.13;5031678;28;20026;-64
2023/06/14 08:58:14;;;;;;;4.28;2.63;;;;;;;24.95;64.09;100146.91;5032010;28;20058;-65
2023/06/14 09:00:42;;;;;;;5.68;2.60;;;;;;;25.39;63.25;100195.91;5031749;28;20087;-66
2023/06/14 09:03:13;;;;;;;4.20;2.10;;;;;;;25.44;65.04;100188.72;5031821;28;20025;-65
2023/06/14 09:05:38;;;;;;;4.90;2.83;;;;;;;25.72;64.67;100206.38;5031795;28;20052;-69
2023/06/14 09:08:05;;;;;;;4.25;2.42;;;;;;;25.83;63.88;100199.88;5031593;28;20128;-67
2023/06/14 09:10:36;;;;;;;3.55;2.25;;;;;;;25.92;61.75;100203.13;5031530;28;20030;-66
2023/06/14 09:13:04;;;;;;;4.65;2.30;;;;;;;25.09;59.27;100103.41;5031647;28;20056;-67
2023/06/14 09:15:32;;;;;;;5.10;2.58;;;;;;;25.42;59.66;100206.38;5031675;28;20044;-66
2023/06/14 09:17:58;;;;;;;5.40;2.33;;;;;;;25.64;59.29;100202.19;5031704;28;20029;-66
2023/06/14 09:20:24;;;;;;;4.38;2.35;;;;;;;25.74;58.35;100217.78;5031189;28;20292;-71
2023/06/14 09:22:50;;;;;;;7.55;2.50;;;;;;;25.71;57.60;100183.50;5030778;28;20112;-64
2023/06/14 09:25:15;;;;;;;8.90;2.90;;;;;;;25.92;58.67;100193.44;5031371;28;20110;-66
2023/06/14 09:27:42;;;;;;;7.35;2.45;;;;;;;25.35;60.18;100118.47;5031427;28;20029;-67
2023/06/14 09:30:09;;;;;;;4.82;2.53;;;;;;;25.66;57.25;100151.94;5031229;28;20464;-66
2023/06/14 09:32:39;;;;;;;6.50;2.35;;;;;;;26.11;56.44;100209.63;5031301;28;20083;-66
2023/06/14 09:35:08;;;;;;;14.95;3.03;;;;;;;26.26;57.17;100202.09;5031492;28;20025;-66
2023/06/14 09:37:34;;;;;;;5.47;2.47;;;;;;;26.52;54.42;100198.59;5031096;28;20545;-66
2023/06/14 09:40:00;;;;;;;4.55;2.40;;;;;;;26.54;54.52;100188.78;5031174;28;20080;-66
2023/06/14 09:42:26;;;;;;;4.00;2.40;;;;;;;26.54;54.79;100196.75;5031051;28;20029;-65
2023/06/14 09:44:53;;;;;;;3.72;2.35;;;;;;;26.67;54.92;100191.91;5028558;28;20033;-66
2023/06/14 09:47:19;;;;;;;8.68;2.67;;;;;;;26.82;55.62;100190.53;5030987;28;20108;-67
2023/06/14 09:49:45;;;;;;;5.60;2.75;;;;;;;26.80;53.56;100187.97;5030445;28;20524;-67
2023/06/14 09:52:13;;;;;;;6.10;2.80;;;;;;;26.67;56.33;100191.03;5028448;28;20037;-66
2023/06/14 09:54:46;;;;;;;5.28;2.53;;;;;;;26.67;55.47;100185.72;5030727;28;20052;-66
2023/06/14 09:57:12;;;;;;;5.85;2.60;;;;;;;26.82;55.70;100187.00;5030975;28;20053;-66
2023/06/14 09:59:41;;;;;;;5.53;2.20;;;;;;;27.04;54.66;100182.72;5030784;28;20037;-66
2023/06/14 10:02:14;;;;;;;3.08;2.20;;;;;;;27.00;54.72;100177.56;5030800;28;20034;-68
2023/06/14 10:04:46;;;;;;;4.28;2.40;;;;;;;27.06;54.32;100178.19;5030718;28;20040;-67
2023/06/14 10:07:17;;;;;;;4.28;2.33;;;;;;;27.09;54.30;100151.59;5030982;28;20100;-66
2023/06/14 10:09:48;;;;;;;3.28;2.30;;;;;;;27.46;53.75;100173.22;5030311;28;20028;-67
2023/06/14 10:12:20;;;;;;;6.78;2.67;;;;;;;27.29;53.21;100127.00;5030559;28;20037;-65
2023/06/14 10:14:47;;;;;;;3.92;2.45;;;;;;;27.50;56.12;100161.56;5030425;28;20402;-67
2023/06/14 10:17:20;;;;;;;4.60;2.55;;;;;;;27.74;53.64;100148.31;5031050;28;20034;-67
2023/06/14 10:19:55;;;;;;;5.65;2.78;;;;;;;27.81;56.61;100123.25;5030595;28;20475;-67
2023/06/14 10:22:30;;;;;;;7.85;2.72;;;;;;;28.13;53.52;100166.22;5030544;28;20037;-66
2023/06/14 10:24:56;;;;;;;7.75;3.00;;;;;;;27.90;52.71;100168.00;5030574;28;20029;-67
2023/06/14 10:27:24;;;;;;;6.90;3.20;;;;;;;28.11;54.96;100162.75;5030122;28;20103;-70
2023/06/14 10:29:52;;;;;;;4.72;2.95;;;;;;;28.13;53.24;100163.56;5030514;28;20083;-66
2023/06/14 10:32:19;;;;;;;11.60;3.20;;;;;;;28.32;54.76;100162.81;5030558;28;20053;-67
2023/06/14 10:34:44;;;;;;;9.80;3.53;;;;;;;28.22;52.98;100163.16;5027884;28;20103;-67
2023/06/14 10:37:14;;;;;;;8.73;2.92;;;;;;;28.44;52.75;100161.41;5030451;28;20041;-65
2023/06/14 10:39:40;;;;;;;4.60;2.90;;;;;;;28.54;52.13;100153.00;5030330;28;20056;-67
2023/06/14 10:42:06;;;;;;;6.32;2.58;;;;;;;28.08;52.30;100110.66;5030525;28;20462;-66
2023/06/14 10:44:32;;;;;;;5.80;2.90;;;;;;;28.15;53.52;100145.78;5027906;28;20120;-66
2023/06/14 10:47:00;;;;;;;5.18;2.92;;;;;;;28.12;53.30;100147.72;5028838;28;20029;-66
2023/06/14 10:49:44;;;;;;;5.60;2.92;;;;;;;28.02;53.39;100140.06;5030416;28;20030;-67
2023/06/14 10:52:18;;;;;;;7.13;3.20;;;;;;;27.33;55.50;100090.63;5029711;28;20029;-66
2023/06/14 10:55:04;;;;;;;6.57;3.55;;;;;;;27.99;53.76;100142.00;5030114;28;20022;-69
2023/06/14 10:57:33;;;;;;;8.15;3.00;;;;;;;28.05;53.40;100132.03;5029737;28;20160;-66
2023/06/14 11:00:11;;;;;;;10.02;3.20;;;;;;;27.74;53.47;100127.09;5032876;28;20025;-67
2023/06/14 11:02:46;;;;;;;9.03;3.20;;;;;;;27.67;53.86;100146.81;5032116;28;20038;-71
2023/06/14 11:05:15;;;;;;;13.38;3.15;;;;;;;27.64;53.46;100100.06;5033929;28;20041;-67
2023/06/14 11:08:00;;;;;;;;;;;;;;;28.27;54.37;100138.25;5034774;28;20503;-66
2023/06/14 11:10:40;;;;;;;7.13;3.10;;;;;;;28.66;52.99;100122.38;5033969;28;19920;-67
2023/06/14 11:13:07;;;;;;;10.63;3.00;;;;;;;28.98;50.73;100122.75;5034127;28;20083;-71
2023/06/14 11:15:34;;;;;;;4.22;2.58;;;;;;;29.09;50.41;100092.19;5033993;28;20499;-67
2023/06/14 11:18:01;;;;;;;7.32;2.60;;;;;;;29.36;50.08;100130.81;5033833;28;20381;-65